Time;durP1;ratioP1;P1;durP2;ratioP2;P2;SDS_P1;SDS_P2;PMS_P1;PMS_P2;Temp;Humidity;BMP_temperature;BMP_pressure;BME280_temperature;BME280_humidity;BME280_pressure;Samples;Min_cycle;Max_cycle;Signal;HPM_P1;HPM_P2
2023/07/30 00:01:07;;;;;;;4.35;2.83;;;20.50;99.90;;;;;;5031959;28;20107;-52
2023/07/30 00:03:32;;;;;;;5.47;3.42;;;20.40;99.90;;;;;;5032029;28;20603;-49
2023/07/30 00:05:58;;;;;;;2.70;2.50;;;20.50;99.90;;;;;;5014212;28;20030;-49
2023/07/30 00:08:23;;;;;;;6.15;2.08;;;20.60;99.90;;;;;;5031606;28;20043;-52
2023/07/30 00:10:49;;;;;;;2.30;2.20;;;20.50;99.90;;;;;;5031920;28;20485;-51
2023/07/30 00:13:15;;;;;;;1.98;1.85;;;20.40;99.90;;;;;;5031875;28;20033;-50
2023/07/30 00:15:40;;;;;;;2.08;1.95;;;20.30;99.90;;;;;;5031590;28;20072;-53
2023/07/30 00:18:06;;;;;;;2.47;2.28;;;20.30;99.90;;;;;;5031774;28;20038;-52
2023/07/30 00:20:33;;;;;;;6.50;2.10;;;20.30;99.90;;;;;;5014356;28;20025;-53
2023/07/30 00:22:59;;;;;;;4.22;2.15;;;20.20;99.90;;;;;;5031728;28;20396;-49
2023/07/30 00:25:24;;;;;;;6.05;1.73;;;20.30;99.90;;;;;;5013942;28;20037;-50
2023/07/30 00:27:50;;;;;;;3.70;2.30;;;20.30;99.90;;;;;;5031275;28;20040;-52
2023/07/30 00:30:15;;;;;;;1.98;1.80;;;20.20;99.90;;;;;;5013903;28;20025;-50
2023/07/30 00:32:43;;;;;;;4.03;2.38;;;20.20;99.90;;;;;;5013758;28;20133;-52
2023/07/30 00:35:12;;;;;;;5.00;2.15;;;20.30;99.90;;;;;;5031397;28;20409;-52
2023/07/30 00:37:37;;;;;;;2.05;1.52;;;20.30;99.90;;;;;;5031120;28;20079;-51
2023/07/30 00:40:03;;;;;;;1.92;1.83;;;20.30;99.90;;;;;;5013313;28;20548;-54
2023/07/30 00:42:29;;;;;;;2.08;1.98;;;20.30;99.90;;;;;;5031424;28;20397;-52
2023/07/30 00:44:55;;;;;;;4.32;1.90;;;20.30;99.90;;;;;;5031409;28;20029;-53
2023/07/30 00:47:22;;;;;;;3.53;1.60;;;20.30;99.90;;;;;;5011691;28;20022;-52
2023/07/30 00:49:48;;;;;;;2.40;2.22;;;20.30;99.90;;;;;;5031060;28;20045;-53
2023/07/30 00:52:18;;;;;;;3.10;1.55;;;20.30;99.90;;;;;;5031067;28;20030;-53
2023/07/30 00:54:44;;;;;;;2.22;1.60;;;20.30;99.90;;;;;;5030689;28;20018;-52
2023/07/30 00:57:10;;;;;;;1.30;1.20;;;20.30;99.90;;;;;;5031242;28;20076;-53
2023/07/30 00:59:36;;;;;;;6.22;1.33;;;20.30;99.90;;;;;;5031119;28;20041;-54
2023/07/30 01:02:03;;;;;;;2.92;1.52;;;20.20;99.90;;;;;;5031503;28;20029;-52
2023/07/30 01:04:29;;;;;;;1.05;1.05;;;20.30;99.90;;;;;;5031445;28;20085;-51
2023/07/30 01:06:54;;;;;;;1.00;1.00;;;20.30;99.90;;;;;;5031023;28;20079;-54
2023/07/30 01:09:21;;;;;;;1.17;1.08;;;20.30;99.90;;;;;;5030825;28;20037;-55
2023/07/30 01:11:47;;;;;;;3.20;1.10;;;20.30;99.90;;;;;;5031245;28;20056;-52
2023/07/30 01:14:14;;;;;;;4.18;1.00;;;20.30;99.90;;;;;;5031113;28;20060;-53
2023/07/30 01:16:40;;;;;;;2.05;1.23;;;20.30;99.90;;;;;;5031096;28;20053;-49
2023/07/30 01:19:06;;;;;;;1.27;1.17;;;20.30;99.90;;;;;;5030953;28;20053;-48
2023/07/30 01:21:35;;;;;;;1.10;1.00;;;20.30;99.90;;;;;;5031130;28;20021;-51
2023/07/30 01:24:01;;;;;;;2.63;1.40;;;20.30;99.90;;;;;;5031025;28;20029;-54
2023/07/30 01:26:32;;;;;;;1.23;1.10;;;20.30;99.90;;;;;;5030925;28;20385;-54
2023/07/30 01:29:01;;;;;;;1.52;1.45;;;20.30;99.90;;;;;;5030841;28;20022;-52
2023/07/30 01:31:30;;;;;;;1.50;1.40;;;20.30;99.90;;;;;;5013525;28;20021;-56
2023/07/30 01:34:26;;;;;;;2.05;0.90;;;20.30;99.90;;;;;;5030942;28;20036;-52
2023/07/30 01:36:53;;;;;;;2.40;0.80;;;20.30;99.90;;;;;;5029704;28;20045;-51
2023/07/30 01:39:19;;;;;;;1.48;1.20;;;20.30;99.90;;;;;;5030838;28;20493;-54
2023/07/30 01:41:45;;;;;;;1.73;1.25;;;20.30;99.90;;;;;;5031044;28;20458;-53
2023/07/30 01:44:10;;;;;;;1.25;1.05;;;20.30;99.90;;;;;;5031023;28;20128;-53
2023/07/30 01:46:36;;;;;;;1.85;0.90;;;20.30;99.90;;;;;;5030906;28;20049;-49
2023/07/30 01:49:01;;;;;;;1.58;1.33;;;20.30;99.90;;;;;;5030446;28;20520;-53
2023/07/30 01:51:27;;;;;;;1.35;1.25;;;20.40;99.90;;;;;;5034143;28;20032;-55
2023/07/30 01:53:52;;;;;;;1.77;1.02;;;20.30;99.90;;;;;;5034389;28;20028;-50
2023/07/30 01:56:18;;;;;;;3.85;0.95;;;20.40;99.90;;;;;;5034283;28;20021;-53
2023/07/30 01:58:43;;;;;;;1.35;1.08;;;20.30;99.90;;;;;;5016336;28;20032;-52
2023/07/30 02:01:09;;;;;;;1.40;1.30;;;20.30;99.90;;;;;;5034364;28;20030;-53
2023/07/30 02:03:35;;;;;;;1.15;1.10;;;20.30;99.90;;;;;;5034262;28;20443;-50
2023/07/30 02:06:00;;;;;;;3.83;1.15;;;20.20;99.90;;;;;;5034123;28;20029;-52
2023/07/30 02:08:26;;;;;;;1.45;1.00;;;20.30;99.90;;;;;;5033854;28;20029;-52
2023/07/30 02:10:56;;;;;;;1.30;1.20;;;20.20;99.90;;;;;;5034314;28;20052;-51
2023/07/30 02:13:22;;;;;;;1.60;1.00;;;20.20;99.90;;;;;;5034090;28;20040;-56
2023/07/30 02:15:47;;;;;;;2.03;1.33;;;20.20;99.90;;;;;;5033937;28;20044;-52
2023/07/30 02:18:12;;;;;;;1.10;1.10;;;20.10;99.90;;;;;;5033917;28;20065;-51
2023/07/30 02:20:38;;;;;;;1.13;1.10;;;20.10;99.90;;;;;;5016138;28;20021;-52
2023/07/30 02:23:04;;;;;;;1.55;1.40;;;20.00;99.90;;;;;;5033946;28;20036;-55
2023/07/30 02:25:29;;;;;;;1.70;1.60;;;20.00;99.90;;;;;;5016320;28;20033;-52
2023/07/30 02:27:55;;;;;;;3.80;1.65;;;20.00;99.90;;;;;;5033464;28;20108;-55
2023/07/30 02:30:20;;;;;;;3.33;1.55;;;20.00;99.90;;;;;;5033898;28;20024;-54
2023/07/30 02:32:45;;;;;;;3.28;1.40;;;20.00;99.90;;;;;;5033725;28;20041;-54
2023/07/30 02:35:11;;;;;;;1.92;1.60;;;20.00;99.90;;;;;;5033739;28;20036;-51
2023/07/30 02:37:36;;;;;;;3.92;1.20;;;20.00;99.90;;;;;;5033711;28;20036;-51
2023/07/30 02:40:04;;;;;;;1.33;1.20;;;19.90;99.90;;;;;;5016389;28;20029;-55
2023/07/30 02:42:30;;;;;;;2.45;1.10;;;19.90;99.90;;;;;;5034197;28;20068;-54
2023/07/30 02:44:56;;;;;;;2.83;1.50;;;19.80;99.90;;;;;;5034910;28;20022;-56
2023/07/30 02:47:21;;;;;;;1.83;1.63;;;19.80;99.90;;;;;;5034113;28;20037;-52
2023/07/30 02:49:46;;;;;;;3.53;1.38;;;19.70;99.90;;;;;;5033465;28;20116;-51
2023/07/30 02:52:12;;;;;;;1.63;1.35;;;19.70;99.90;;;;;;5033502;28;20034;-53
2023/07/30 02:54:37;;;;;;;4.07;1.27;;;19.70;99.90;;;;;;5033275;28;20025;-52
2023/07/30 02:57:03;;;;;;;1.63;1.40;;;19.70;99.90;;;;;;5033257;28;20029;-50
2023/07/30 02:59:29;;;;;;;1.30;1.20;;;19.70;99.90;;;;;;5033052;28;20132;-51
2023/07/30 03:01:54;;;;;;;2.22;1.27;;;19.70;99.90;;;;;;5032755;28;20515;-51
2023/07/30 03:04:20;;;;;;;1.10;1.10;;;19.70;99.90;;;;;;5033192;28;20091;-55
2023/07/30 03:06:45;;;;;;;4.13;1.40;;;19.70;99.90;;;;;;5032976;28;20021;-51
2023/07/30 03:09:11;;;;;;;2.92;1.40;;;19.80;99.90;;;;;;5015109;28;20512;-55
2023/07/30 03:11:36;;;;;;;5.13;1.52;;;19.80;99.90;;;;;;5033094;28;20033;-52
2023/07/30 03:14:02;;;;;;;5.45;1.50;;;19.80;99.90;;;;;;5033129;28;20022;-56
2023/07/30 03:16:27;;;;;;;0.95;0.95;;;19.80;99.90;;;;;;5032825;28;20440;-54
2023/07/30 03:18:53;;;;;;;2.42;1.52;;;19.80;99.90;;;;;;5032982;28;20025;-53
2023/07/30 03:21:18;;;;;;;1.30;1.27;;;19.80;99.90;;;;;;5033866;28;20104;-52
2023/07/30 03:23:44;;;;;;;1.65;1.52;;;19.80;99.90;;;;;;5016071;28;20026;-52
2023/07/30 03:26:10;;;;;;;2.28;1.25;;;19.80;99.90;;;;;;5033004;28;20026;-50
2023/07/30 03:28:36;;;;;;;2.40;1.50;;;19.80;99.90;;;;;;5014543;28;20030;-49
2023/07/30 03:31:01;;;;;;;3.38;1.55;;;19.70;99.90;;;;;;5032493;28;20048;-49
2023/07/30 03:33:27;;;;;;;1.40;1.30;;;19.70;99.90;;;;;;5032511;28;20032;-54
2023/07/30 03:35:52;;;;;;;1.40;1.30;;;19.70;99.90;;;;;;5032253;28;20120;-52
2023/07/30 03:38:18;;;;;;;2.67;1.20;;;19.60;99.90;;;;;;5032232;28;20026;-49
2023/07/30 03:40:43;;;;;;;3.17;1.27;;;19.60;99.90;;;;;;5032457;28;20052;-50
2023/07/30 03:43:09;;;;;;;2.80;1.08;;;19.60;99.90;;;;;;5032400;28;20053;-50
2023/07/30 03:45:34;;;;;;;1.38;1.08;;;19.50;99.90;;;;;;5014485;28;20444;-50
2023/07/30 03:48:00;;;;;;;3.35;1.08;;;19.40;99.90;;;;;;5031879;28;20522;-53
2023/07/30 03:50:25;;;;;;;2.13;0.90;;;19.30;99.90;;;;;;5032331;28;20523;-54
2023/07/30 03:52:50;;;;;;;1.48;1.38;;;19.20;99.90;;;;;;5032300;28;20060;-52
2023/07/30 03:55:16;;;;;;;1.27;1.10;;;19.20;99.90;;;;;;5014459;28;20020;-56
2023/07/30 03:57:41;;;;;;;1.00;1.00;;;19.10;99.90;;;;;;5031804;28;20029;-54
2023/07/30 04:00:07;;;;;;;4.53;1.88;;;19.10;99.90;;;;;;5014569;28;20025;-50
2023/07/30 04:02:33;;;;;;;3.65;1.25;;;19.10;99.90;;;;;;5032031;28;20030;-49
2023/07/30 04:04:58;;;;;;;5.15;1.10;;;19.20;99.90;;;;;;5032134;28;20021;-50
2023/07/30 04:07:24;;;;;;;1.30;1.20;;;19.10;99.90;;;;;;5014154;28;20018;-56
2023/07/30 04:09:49;;;;;;;1.48;1.02;;;19.20;99.90;;;;;;5031950;28;20108;-51
2023/07/30 04:12:15;;;;;;;1.98;1.15;;;19.20;99.90;;;;;;5031526;28;20017;-55
2023/07/30 04:14:40;;;;;;;1.42;1.10;;;19.20;99.90;;;;;;5014188;28;20048;-53
2023/07/30 04:17:06;;;;;;;6.18;1.10;;;19.30;99.90;;;;;;5031744;28;20029;-51
2023/07/30 04:19:31;;;;;;;3.08;1.10;;;19.10;99.90;;;;;;5031614;28;20033;-54
2023/07/30 04:21:57;;;;;;;2.00;1.33;;;19.20;99.90;;;;;;5031765;28;20033;-52
2023/07/30 04:24:22;;;;;;;2.47;1.27;;;19.20;99.90;;;;;;5031683;28;20121;-56
2023/07/30 04:26:48;;;;;;;1.58;1.27;;;19.20;99.90;;;;;;5031493;28;20452;-50
2023/07/30 04:29:15;;;;;;;4.53;1.30;;;19.20;99.90;;;;;;5031656;28;20029;-51
2023/07/30 04:31:40;;;;;;;6.55;1.33;;;19.30;99.90;;;;;;5031650;28;20018;-53
2023/07/30 04:34:06;;;;;;;1.30;1.17;;;19.30;99.90;;;;;;5031599;28;20030;-50
2023/07/30 04:36:31;;;;;;;1.42;1.33;;;19.30;99.90;;;;;;5031417;28;20057;-54
2023/07/30 04:38:56;;;;;;;1.55;1.25;;;19.30;99.90;;;;;;5013519;28;20028;-53
2023/07/30 04:41:22;;;;;;;1.38;1.27;;;19.20;99.90;;;;;;5031524;28;20041;-55
2023/07/30 04:43:48;;;;;;;1.25;1.20;;;19.20;99.90;;;;;;5031456;28;20044;-54
2023/07/30 04:46:13;;;;;;;1.63;1.50;;;19.20;99.90;;;;;;5031365;28;20088;-54
2023/07/30 04:48:38;;;;;;;1.10;1.10;;;19.20;99.90;;;;;;5030810;28;20033;-53
2023/07/30 04:51:04;;;;;;;8.18;2.13;;;19.20;99.90;;;;;;5031472;28;20022;-51
2023/07/30 04:53:30;;;;;;;3.42;1.40;;;19.10;99.90;;;;;;5031378;28;20057;-56
2023/07/30 04:55:59;;;;;;;2.55;1.40;;;19.40;99.90;;;;;;5013609;28;20482;-53
2023/07/30 04:58:24;;;;;;;2.60;1.58;;;19.20;99.90;;;;;;5031275;28;20042;-53
2023/07/30 05:00:50;;;;;;;1.50;1.40;;;19.20;99.90;;;;;;5031447;28;20026;-53
2023/07/30 05:03:16;;;;;;;2.45;1.67;;;19.20;99.90;;;;;;5031361;28;20048;-54
2023/07/30 05:05:41;;;;;;;1.40;1.30;;;19.00;99.90;;;;;;5031164;28;20038;-52
2023/07/30 05:08:07;;;;;;;1.40;1.30;;;19.20;99.90;;;;;;5030801;28;20029;-52
2023/07/30 05:10:33;;;;;;;4.57;1.33;;;19.30;99.90;;;;;;5031230;28;20057;-51
2023/07/30 05:12:58;;;;;;;2.35;1.42;;;19.20;99.90;;;;;;5031202;28;20032;-53
2023/07/30 05:15:24;;;;;;;1.63;1.13;;;19.30;99.90;;;;;;5013414;28;20503;-51
2023/07/30 05:17:49;;;;;;;4.28;1.63;;;19.50;99.90;;;;;;5030934;28;20021;-54
2023/07/30 05:20:15;;;;;;;2.25;1.25;;;19.70;99.90;;;;;;5031140;28;20021;-51
2023/07/30 05:22:40;;;;;;;1.38;1.27;;;20.10;99.90;;;;;;5031116;28;20024;-55
2023/07/30 05:25:06;;;;;;;3.63;1.13;;;20.40;99.90;;;;;;5033683;28;20052;-53
2023/07/30 05:27:32;;;;;;;1.77;1.50;;;20.70;99.90;;;;;;5035199;28;20112;-50
2023/07/30 05:29:57;;;;;;;1.73;1.45;;;20.90;99.90;;;;;;5034711;28;20140;-50
2023/07/30 05:32:23;;;;;;;3.03;1.35;;;21.00;99.90;;;;;;5034900;28;20060;-52
2023/07/30 05:34:48;;;;;;;1.83;1.23;;;20.90;99.90;;;;;;5035342;28;20100;-50
2023/07/30 05:37:14;;;;;;;4.95;1.23;;;21.10;99.90;;;;;;5053906;22;20056;-46
2023/07/30 05:39:39;;;;;;;1.70;1.10;;;21.40;99.90;;;;;;5034093;28;20036;-47
2023/07/30 05:42:05;;;;;;;1.75;1.00;;;21.70;99.90;;;;;;5034750;28;20056;-45
2023/07/30 05:44:30;;;;;;;2.20;1.40;;;22.00;99.90;;;;;;5034822;28;20556;-46
2023/07/30 05:46:56;;;;;;;4.47;1.42;;;22.20;99.90;;;;;;5034532;28;20029;-45
2023/07/30 05:49:21;;;;;;;1.38;1.08;;;22.50;99.90;;;;;;5033948;28;20488;-47
2023/07/30 05:51:47;;;;;;;2.67;1.27;;;22.90;99.90;;;;;;5034581;28;20045;-46
2023/07/30 05:54:13;;;;;;;3.38;1.10;;;23.50;99.90;;;;;;5034670;28;20097;-49
2023/07/30 05:56:38;;;;;;;4.38;1.10;;;24.00;99.90;;;;;;5035127;28;20053;-51
2023/07/30 05:59:04;;;;;;;1.25;0.93;;;24.10;99.90;;;;;;5034497;28;20033;-49
2023/07/30 06:01:29;;;;;;;1.55;1.42;;;24.30;99.90;;;;;;5034466;28;20086;-46
2023/07/30 06:03:55;;;;;;;2.45;1.77;;;24.20;99.90;;;;;;5034333;28;20507;-49
2023/07/30 06:06:26;;;;;;;2.53;1.05;;;24.40;99.90;;;;;;5016383;28;20040;-46
2023/07/30 06:08:53;;;;;;;1.42;1.23;;;24.70;99.90;;;;;;5017234;28;20104;-47
2023/07/30 06:11:18;;;;;;;1.55;1.20;;;25.00;99.90;;;;;;5034181;28;20026;-48
2023/07/30 06:13:44;;;;;;;1.13;0.90;;;25.40;99.90;;;;;;5034214;28;20033;-46
2023/07/30 06:16:10;;;;;;;1.23;1.13;;;25.80;99.90;;;;;;5016258;28;20033;-46
2023/07/30 06:18:35;;;;;;;1.52;1.30;;;26.00;99.90;;;;;;5033704;28;20100;-49
2023/07/30 06:21:01;;;;;;;2.35;1.10;;;26.20;99.90;;;;;;5033965;28;20036;-49
2023/07/30 06:23:26;;;;;;;1.20;1.10;;;26.30;99.90;;;;;;5034019;28;20435;-45
2023/07/30 06:25:52;;;;;;;1.10;1.00;;;26.10;99.90;;;;;;5034163;28;20036;-45
2023/07/30 06:28:17;;;;;;;1.17;1.08;;;25.80;99.90;;;;;;5016447;28;20057;-45
2023/07/30 06:30:43;;;;;;;1.17;1.00;;;25.50;99.90;;;;;;5034472;28;20056;-45
2023/07/30 06:33:09;;;;;;;2.45;0.80;;;25.10;99.90;;;;;;5034405;28;20041;-40
2023/07/30 06:35:34;;;;;;;1.70;1.10;;;24.60;99.90;;;;;;5033596;28;20025;-44
2023/07/30 06:38:00;;;;;;;1.83;1.30;;;24.10;99.90;;;;;;5034130;28;20037;-47
2023/07/30 06:40:25;;;;;;;1.50;1.40;;;23.70;99.90;;;;;;5033830;28;20407;-53
2023/07/30 06:42:51;;;;;;;1.27;1.17;;;23.30;99.90;;;;;;5033710;28;20396;-49
2023/07/30 06:45:16;;;;;;;4.00;1.33;;;23.10;99.90;;;;;;5033469;28;20374;-45
2023/07/30 06:47:42;;;;;;;1.23;1.20;;;23.00;99.90;;;;;;5032883;28;20056;-45
2023/07/30 06:50:08;;;;;;;3.88;1.10;;;22.90;99.90;;;;;;5033409;28;20021;-46
2023/07/30 06:52:34;;;;;;;1.48;1.20;;;23.00;99.90;;;;;;5033436;28;20022;-51
2023/07/30 06:55:00;;;;;;;1.27;1.15;;;23.00;99.90;;;;;;5015490;28;20026;-50
2023/07/30 06:57:25;;;;;;;2.25;1.27;;;23.10;99.90;;;;;;5033151;28;20032;-49
2023/07/30 06:59:51;;;;;;;1.25;1.10;;;23.10;99.90;;;;;;5015252;28;20022;-48
2023/07/30 07:02:16;;;;;;;1.15;1.15;;;23.10;99.90;;;;;;5033167;28;20025;-45
2023/07/30 07:04:42;;;;;;;1.52;1.42;;;23.00;99.90;;;;;;5033192;28;20101;-52
2023/07/30 07:07:07;;;;;;;2.60;1.10;;;22.90;99.90;;;;;;5015211;28;20032;-49
2023/07/30 07:09:33;;;;;;;3.22;1.25;;;22.70;99.90;;;;;;5032694;28;20100;-47
2023/07/30 07:11:59;;;;;;;1.42;1.20;;;22.50;99.90;;;;;;5032900;28;20025;-51
2023/07/30 07:14:24;;;;;;;3.10;1.50;;;22.40;99.90;;;;;;5032775;28;20100;-49
2023/07/30 07:16:50;;;;;;;3.83;1.23;;;22.20;99.90;;;;;;5032716;28;20104;-44
2023/07/30 07:19:15;;;;;;;1.88;1.45;;;22.10;99.90;;;;;;5032695;28;20025;-49
2023/07/30 07:21:41;;;;;;;1.77;1.50;;;21.90;99.90;;;;;;5032776;28;20083;-50
2023/07/30 07:24:06;;;;;;;3.83;2.05;;;21.70;99.90;;;;;;5031494;28;20025;-48
2023/07/30 07:26:32;;;;;;;2.25;1.83;;;21.40;99.90;;;;;;5032635;28;20518;-45
2023/07/30 07:28:57;;;;;;;2.92;2.13;;;21.20;99.90;;;;;;4998269;28;20127;-46
2023/07/30 07:31:23;;;;;;;2.63;2.00;;;20.90;99.90;;;;;;5014385;28;20037;-48
2023/07/30 07:33:48;;;;;;;4.05;1.85;;;20.80;99.90;;;;;;5032570;28;20115;-45
2023/07/30 07:36:14;;;;;;;2.53;2.33;;;20.70;99.90;;;;;;5032329;28;20034;-47
2023/07/30 07:38:40;;;;;;;4.25;2.10;;;20.60;99.90;;;;;;5026561;28;20104;-46
2023/07/30 07:41:06;;;;;;;3.47;2.08;;;20.50;99.90;;;;;;5031898;28;20029;-45
2023/07/30 07:43:31;;;;;;;2.55;1.67;;;20.40;99.90;;;;;;5031899;28;20042;-50
2023/07/30 07:45:57;;;;;;;2.22;1.88;;;20.40;99.90;;;;;;5032349;28;20028;-49
2023/07/30 07:48:22;;;;;;;3.45;2.28;;;20.30;99.90;;;;;;5031903;28;20527;-48
2023/07/30 07:50:48;;;;;;;2.15;1.75;;;20.30;99.90;;;;;;5032392;28;20053;-50
2023/07/30 07:53:14;;;;;;;4.47;2.55;;;20.40;99.90;;;;;;5031785;28;20393;-47
2023/07/30 07:55:39;;;;;;;5.57;2.00;;;20.50;99.90;;;;;;5032059;28;20025;-47
2023/07/30 07:58:04;;;;;;;2.35;2.05;;;20.50;99.90;;;;;;5031937;28;20033;-47
2023/07/30 08:00:30;;;;;;;1.98;1.65;;;20.70;99.90;;;;;;5032478;28;20056;-52
2023/07/30 08:02:55;;;;;;;3.85;1.40;;;20.90;99.90;;;;;;5032386;28;20033;-45
2023/07/30 08:05:21;;;;;;;5.43;1.60;;;21.40;99.90;;;;;;5032074;28;20037;-45
2023/07/30 08:07:47;;;;;;;3.00;1.48;;;22.10;99.90;;;;;;5031543;28;20084;-47
2023/07/30 08:10:12;;;;;;;1.67;1.33;;;22.80;99.90;;;;;;5032112;28;20108;-46
2023/07/30 08:12:38;;;;;;;1.10;1.00;;;23.90;99.90;;;;;;5032868;28;20470;-48
2023/07/30 08:15:04;;;;;;;1.42;1.35;;;24.30;99.90;;;;;;5031749;28;20091;-49
2023/07/30 08:17:29;;;;;;;1.85;1.30;;;24.60;99.90;;;;;;5031662;28;20385;-49
2023/07/30 08:19:55;;;;;;;1.10;1.00;;;24.60;99.90;;;;;;5031532;28;20188;-49
2023/07/30 08:22:20;;;;;;;3.28;1.00;;;24.80;99.90;;;;;;5031431;28;20090;-44
2023/07/30 08:24:46;;;;;;;0.70;0.70;;;25.20;99.90;;;;;;5031721;28;20033;-48
2023/07/30 08:27:11;;;;;;;1.10;1.00;;;25.70;99.90;;;;;;5013705;28;20029;-52
2023/07/30 08:29:37;;;;;;;0.90;0.90;;;26.00;99.90;;;;;;5031422;28;20029;-47
2023/07/30 08:32:02;;;;;;;2.88;0.98;;;26.40;99.90;;;;;;5031294;28;20021;-46
2023/07/30 08:34:28;;;;;;;1.02;0.90;;;26.60;99.90;;;;;;5031267;28;20104;-48
2023/07/30 08:36:53;;;;;;;1.25;1.15;;;26.30;99.90;;;;;;5007566;28;20040;-48
2023/07/30 08:39:19;;;;;;;1.38;1.27;;;26.50;99.90;;;;;;5004078;28;20040;-45
2023/07/30 08:41:45;;;;;;;1.27;1.20;;;26.30;99.90;;;;;;5031487;28;20079;-44
2023/07/30 08:44:11;;;;;;;1.30;1.23;;;26.00;99.90;;;;;;5031042;28;20035;-50
2023/07/30 08:46:37;;;;;;;2.10;1.48;;;25.60;99.90;;;;;;5030714;28;20104;-46
2023/07/30 08:49:03;;;;;;;1.85;1.35;;;25.40;99.90;;;;;;5029599;28;20540;-55
2023/07/30 08:51:29;;;;;;;3.92;1.50;;;25.20;99.90;;;;;;5027505;28;20481;-50
2023/07/30 08:53:57;;;;;;;2.90;1.27;;;25.00;99.90;;;;;;5022037;28;20030;-52
2023/07/30 08:56:23;;;;;;;5.93;2.65;;;24.90;99.90;;;;;;5025359;28;20422;-56
2023/07/30 08:58:51;;;;;;;2.72;1.90;;;24.60;99.90;;;;;;5031121;28;20481;-57
2023/07/30 09:01:18;;;;;;;3.63;1.90;;;24.50;99.90;;;;;;5034945;28;20029;-48
2023/07/30 09:03:44;;;;;;;2.13;1.92;;;24.40;99.90;;;;;;5034387;28;20087;-50
2023/07/30 09:06:10;;;;;;;3.40;1.73;;;24.00;99.90;;;;;;5034325;28;20037;-50
2023/07/30 09:08:35;;;;;;;2.22;1.90;;;23.70;99.90;;;;;;5034164;28;20053;-50
2023/07/30 09:11:11;;;;;;;2.17;1.98;;;23.40;99.90;;;;;;5034713;28;20061;-48
2023/07/30 09:13:38;;;;;;;4.03;1.60;;;23.20;99.90;;;;;;5034344;28;20022;-53
2023/07/30 09:16:15;;;;;;;2.13;1.92;;;22.90;99.90;;;;;;5016612;28;20033;-55
2023/07/30 09:18:49;;;;;;;2.72;1.80;;;22.90;99.90;;;;;;5033561;28;20056;-53
2023/07/30 09:21:14;;;;;;;2.17;1.90;;;22.90;99.90;;;;;;5034260;28;20018;-49
2023/07/30 09:23:44;;;;;;;2.65;1.25;;;22.90;99.90;;;;;;5033911;28;20037;-50
2023/07/30 09:26:10;;;;;;;1.02;0.90;;;22.40;99.90;;;;;;5034505;28;20439;-55
2023/07/30 09:28:36;;;;;;;1.15;0.90;;;21.70;99.90;;;;;;5033987;28;20189;-58
2023/07/30 09:31:07;;;;;;;7.13;0.80;;;21.10;99.90;;;;;;5034219;28;20503;-51
2023/07/30 09:33:33;;;;;;;1.15;0.80;;;20.50;99.90;;;;;;5033829;28;20460;-55
2023/07/30 09:36:02;;;;;;;5.53;1.25;;;20.10;99.90;;;;;;5034354;28;20025;-54
2023/07/30 09:38:30;;;;;;;1.13;1.02;;;19.90;99.90;;;;;;5033976;28;20026;-57
2023/07/30 09:41:01;;;;;;;42.90;28.50;;;19.70;99.90;;;;;;5034247;28;20061;-49
2023/07/30 09:43:32;;;;;;;3.45;2.83;;;19.60;99.90;;;;;;5039189;28;20033;-49
2023/07/30 09:46:03;;;;;;;10.70;2.15;;;19.50;99.90;;;;;;5033627;28;20025;-47
2023/07/30 09:48:31;;;;;;;0.98;0.60;;;19.50;99.90;;;;;;5024404;28;20064;-46
2023/07/30 09:51:05;;;;;;;1.05;0.68;;;19.50;99.90;;;;;;5014109;28;20394;-46
2023/07/30 09:53:35;;;;;;;1.48;0.70;;;19.50;99.90;;;;;;5013989;28;20494;-52
2023/07/30 09:56:05;;;;;;;2.92;0.57;;;19.50;99.90;;;;;;5014460;28;20037;-50
2023/07/30 09:58:31;;;;;;;0.45;0.45;;;19.50;99.90;;;;;;5025810;28;20025;-52
2023/07/30 10:01:00;;;;;;;1.17;0.80;;;19.50;99.90;;;;;;5032242;28;20048;-49
2023/07/30 10:03:27;;;;;;;0.70;0.70;;;19.50;99.90;;;;;;5015030;28;20022;-53
2023/07/30 10:06:00;;;;;;;0.55;0.50;;;19.70;99.90;;;;;;5023017;28;20036;-50
2023/07/30 10:08:28;;;;;;;0.65;0.65;;;19.40;99.90;;;;;;5021635;28;20048;-52
2023/07/30 10:10:55;;;;;;;1.05;0.50;;;19.40;99.90;;;;;;5013255;28;20040;-54
2023/07/30 10:13:22;;;;;;;2.28;0.65;;;19.50;99.90;;;;;;5013651;28;20028;-56
2023/07/30 10:15:47;;;;;;;1.70;0.70;;;19.50;99.90;;;;;;5013260;28;20389;-50
2023/07/30 10:18:13;;;;;;;1.35;1.00;;;19.60;99.90;;;;;;5013090;28;20026;-47
2023/07/30 10:20:39;;;;;;;1.58;0.95;;;19.60;99.90;;;;;;5028753;28;20033;-47
2023/07/30 10:23:05;;;;;;;2.60;0.93;;;19.80;99.90;;;;;;5033000;28;20060;-47
2023/07/30 10:25:46;;;;;;;3.30;1.48;;;20.00;99.90;;;;;;5032597;28;20049;-52
2023/07/30 10:28:27;;;;;;;0.60;0.60;;;20.30;99.90;;;;;;5029471;28;20038;-47
2023/07/30 10:31:08;;;;;;;2.40;0.80;;;20.70;99.90;;;;;;5017326;28;20033;-45
2023/07/30 10:33:55;;;;;;;4.22;1.08;;;21.00;99.90;;;;;;5013177;28;20025;-47
2023/07/30 10:36:32;;;;;;;6.90;0.88;;;21.10;99.90;;;;;;5032086;28;20033;-57
2023/07/30 10:39:11;;;;;;;5.03;0.80;;;21.20;99.90;;;;;;5032583;28;20037;-50
2023/07/30 10:41:37;;;;;;;0.90;0.60;;;21.40;99.90;;;;;;5032994;28;20022;-54
2023/07/30 10:44:03;;;;;;;1.35;0.63;;;21.10;99.90;;;;;;5032164;28;20540;-53
2023/07/30 10:46:28;;;;;;;0.75;0.70;;;21.30;99.90;;;;;;5032401;28;20030;-49
2023/07/30 10:48:54;;;;;;;3.22;1.10;;;21.50;99.90;;;;;;5031963;28;20105;-49
2023/07/30 10:51:23;;;;;;;4.82;1.20;;;21.60;99.90;;;;;;5032652;28;20025;-51
2023/07/30 10:53:50;;;;;;;3.42;1.00;;;21.70;99.90;;;;;;5014582;28;20025;-47
2023/07/30 10:56:18;;;;;;;2.67;1.40;;;21.80;99.90;;;;;;5032172;28;20493;-54
2023/07/30 10:58:49;;;;;;;1.10;0.90;;;21.80;99.90;;;;;;5016832;28;20025;-52
2023/07/30 11:01:14;;;;;;;2.00;0.90;;;21.80;99.90;;;;;;5022407;28;20045;-52
2023/07/30 11:03:40;;;;;;;2.90;1.08;;;21.90;99.90;;;;;;5013358;28;20099;-50
2023/07/30 11:06:07;;;;;;;5.38;1.05;;;22.00;99.90;;;;;;5013323;28;20022;-48
2023/07/30 11:08:37;;;;;;;4.60;1.08;;;22.10;99.90;;;;;;5013255;28;20090;-52
2023/07/30 11:11:03;;;;;;;1.73;1.13;;;22.00;99.90;;;;;;5013461;28;20101;-49
2023/07/30 11:13:29;;;;;;;3.20;1.27;;;21.90;99.90;;;;;;5013032;28;20026;-52
2023/07/30 11:15:55;;;;;;;2.47;1.02;;;22.10;99.90;;;;;;5011391;28;20032;-51
2023/07/30 11:18:20;;;;;;;4.47;1.20;;;22.10;99.90;;;;;;5032603;28;20026;-47
2023/07/30 11:20:46;;;;;;;2.92;1.10;;;22.10;99.90;;;;;;5032948;28;20033;-50
2023/07/30 11:23:22;;;;;;;4.95;1.17;;;22.00;99.90;;;;;;5033140;28;20026;-47
2023/07/30 11:25:49;;;;;;;4.53;1.00;;;22.00;99.90;;;;;;5032595;28;20109;-47
2023/07/30 11:28:26;;;;;;;3.95;1.27;;;21.90;99.90;;;;;;5030145;28;20547;-44
2023/07/30 11:30:52;;;;;;;5.72;2.05;;;21.90;99.90;;;;;;5026133;28;20128;-44
2023/07/30 11:33:18;;;;;;;5.45;1.70;;;21.70;99.90;;;;;;5013890;28;20566;-45
2023/07/30 11:35:44;;;;;;;4.75;2.25;;;21.70;99.90;;;;;;5031373;28;20034;-45
2023/07/30 11:38:10;;;;;;;4.70;1.25;;;21.70;99.90;;;;;;5031209;28;20485;-47
2023/07/30 11:40:36;;;;;;;3.65;1.15;;;21.40;99.90;;;;;;5033215;28;20033;-52
2023/07/30 11:43:03;;;;;;;4.22;1.50;;;21.20;99.90;;;;;;5031597;28;20087;-49
2023/07/30 11:45:29;;;;;;;7.22;1.20;;;20.80;99.90;;;;;;5031699;28;20033;-58
2023/07/30 11:48:09;;;;;;;1.98;0.93;;;21.00;99.90;;;;;;5030850;28;20025;-51
2023/07/30 11:50:44;;;;;;;4.70;1.38;;;20.90;99.90;;;;;;5014085;28;20108;-43
2023/07/30 11:53:10;;;;;;;4.63;1.00;;;20.90;99.90;;;;;;5031252;28;20026;-47
2023/07/30 11:55:40;;;;;;;3.17;2.50;;;21.00;99.90;;;;;;5031200;28;20017;-44
2023/07/30 11:58:06;;;;;;;4.13;1.23;;;21.10;99.90;;;;;;5012592;28;20029;-44
2023/07/30 12:00:32;;;;;;;4.13;1.38;;;21.30;99.90;;;;;;5029763;28;20029;-46
2023/07/30 12:03:05;;;;;;;3.78;1.05;;;21.40;99.90;;;;;;5032279;28;20021;-47
2023/07/30 12:05:33;;;;;;;3.25;1.20;;;21.40;99.90;;;;;;5031737;28;20107;-52
2023/07/30 12:08:02;;;;;;;5.78;1.50;;;21.60;99.90;;;;;;5031399;28;20032;-43
2023/07/30 12:10:28;;;;;;;1.10;0.98;;;21.50;99.90;;;;;;5031746;28;20049;-49
2023/07/30 12:12:53;;;;;;;4.15;1.27;;;21.60;99.90;;;;;;5031655;28;20057;-45
2023/07/30 12:15:19;;;;;;;4.95;1.10;;;21.50;99.90;;;;;;5031591;28;20020;-48
2023/07/30 12:17:44;;;;;;;3.28;2.10;;;21.50;99.90;;;;;;5030774;28;20060;-43
2023/07/30 12:20:11;;;;;;;4.18;1.25;;;21.40;99.90;;;;;;5031961;28;20520;-43
2023/07/30 12:22:38;;;;;;;2.78;1.10;;;21.30;99.90;;;;;;5031059;28;20141;-45
2023/07/30 12:25:05;;;;;;;3.38;1.42;;;21.30;99.90;;;;;;5031070;28;20117;-45
2023/07/30 12:27:31;;;;;;;2.70;0.95;;;21.30;99.90;;;;;;5030836;28;20025;-49
2023/07/30 12:29:56;;;;;;;6.30;1.30;;;21.30;99.90;;;;;;5031255;28;20063;-41
2023/07/30 12:32:22;;;;;;;3.65;1.42;;;21.30;99.90;;;;;;5031049;28;20018;-44
2023/07/30 12:34:47;;;;;;;2.92;1.08;;;21.30;99.90;;;;;;5030169;28;20044;-44
2023/07/30 12:37:13;;;;;;;1.98;1.10;;;21.60;99.90;;;;;;5030846;28;20373;-44
2023/07/30 12:39:39;;;;;;;3.10;0.90;;;21.20;99.10;;;;;;5030818;28;20103;-47
2023/07/30 12:42:04;;;;;;;7.82;1.30;;;21.30;99.20;;;;;;5030744;28;20022;-44